createdAt,value
2018-05-18T03:01:01.895Z,0.00
2018-05-18T03:02:02.880Z,0.00
2018-05-18T03:03:04.950Z,0.00
2018-05-18T03:04:04.423Z,0.00
2018-05-18T03:05:05.980Z,0.00
2018-05-18T03:08:06.437Z,0.00
2018-05-18T03:17:06.048Z,0.00
2018-05-18T03:18:12.892Z,0.00
2018-05-18T03:22:50.166Z,0.00
2018-05-18T03:23:51.728Z,0.00
2018-05-18T03:24:51.380Z,0.00
2018-05-18T03:26:48.640Z,0.00
2018-05-18T03:27:48.744Z,0.00
2018-05-18T03:28:49.143Z,0.00
2018-05-18T03:29:49.179Z,0.00
2018-05-18T03:32:54.983Z,0.00
2018-05-18T03:33:50.419Z,0.00
2018-05-18T03:34:54.813Z,0.00
2018-05-18T04:01:01.612Z,11.25
2018-05-18T04:02:05.526Z,11.25
2018-05-18T04:03:03.603Z,11.25
2018-05-18T04:04:05.472Z,11.25
2018-05-18T04:08:25.226Z,16.88
2018-05-18T04:09:27.421Z,16.88
2018-05-18T04:10:25.565Z,16.88
2018-05-18T04:14:28.049Z,16.88
2018-05-18T04:15:27.577Z,16.88
2018-05-18T04:16:26.717Z,16.88
2018-05-18T04:17:51.373Z,22.50
2018-05-18T04:18:27.236Z,22.50
2018-05-18T04:19:29.187Z,22.50
2018-05-18T04:20:27.776Z,22.50
2018-05-18T04:21:30.074Z,22.50
2018-05-18T04:22:30.451Z,22.50
2018-05-18T04:24:34.284Z,22.50
2018-05-18T04:25:28.770Z,22.50
2018-05-18T04:26:30.062Z,22.50
2018-05-18T04:27:27.565Z,22.50
2018-05-18T04:28:26.925Z,22.50
2018-05-18T04:29:25.573Z,22.50
2018-05-18T04:30:25.592Z,22.50
2018-05-18T04:31:25.713Z,22.50
2018-05-18T04:32:26.238Z,22.50
2018-05-18T04:33:26.093Z,28.13
2018-05-18T04:34:26.385Z,28.13
2018-05-18T04:35:26.491Z,28.13
2018-05-18T04:36:26.584Z,28.13
2018-05-18T04:37:26.721Z,33.75
2018-05-18T04:38:27.066Z,33.75
2018-05-18T04:39:27.248Z,33.75
2018-05-18T04:40:27.436Z,33.75
2018-05-18T04:41:27.585Z,33.75
2018-05-18T04:42:27.739Z,33.75
2018-05-18T04:43:27.800Z,33.75
2018-05-18T04:44:27.949Z,33.75
2018-05-18T04:45:28.247Z,33.75
2018-05-18T04:47:28.667Z,39.38
2018-05-18T04:48:28.662Z,39.38
2018-05-18T04:49:28.802Z,39.38
2018-05-18T04:50:29.148Z,39.38
2018-05-18T04:51:29.292Z,39.38
2018-05-18T04:52:29.417Z,39.38
2018-05-18T04:53:29.646Z,39.38
2018-05-18T04:54:29.693Z,45.00
2018-05-18T04:55:29.960Z,45.00
2018-05-18T04:56:30.111Z,45.00
2018-05-18T04:57:30.412Z,45.00
2018-05-18T04:58:30.499Z,45.00
2018-05-18T04:59:30.524Z,45.00
2018-05-18T05:00:30.771Z,45.00
2018-05-18T05:01:30.994Z,45.00
2018-05-18T05:02:31.421Z,45.00
2018-05-18T05:03:31.503Z,45.00
2018-05-18T05:04:31.684Z,45.00
2018-05-18T05:05:31.925Z,45.00
2018-05-18T05:06:31.964Z,45.00
2018-05-18T05:07:32.284Z,45.00
2018-05-18T05:08:32.393Z,45.00
2018-05-18T05:09:32.551Z,50.63
2018-05-18T05:10:32.677Z,50.63
2018-05-18T05:11:32.853Z,50.63
2018-05-18T05:12:33.117Z,56.25
2018-05-18T05:13:33.259Z,56.25
2018-05-18T05:14:33.448Z,61.88
2018-05-18T05:15:33.616Z,61.88
2018-05-18T05:16:33.785Z,61.88
2018-05-18T05:17:34.100Z,67.50
2018-05-18T05:18:34.912Z,67.50
2018-05-18T05:19:34.307Z,67.50
2018-05-18T05:20:34.476Z,67.50
2018-05-18T05:21:34.674Z,67.50
2018-05-18T05:22:34.703Z,67.50
2018-05-18T05:23:35.050Z,67.50
2018-05-18T05:24:35.190Z,67.50
2018-05-18T05:25:35.420Z,67.50
2018-05-18T05:26:35.422Z,67.50
2018-05-18T05:27:35.571Z,67.50
2018-05-18T05:28:35.780Z,67.50
2018-05-18T05:29:35.941Z,67.50
2018-05-18T05:30:36.107Z,67.50
2018-05-18T05:31:36.397Z,67.50
2018-05-18T05:32:36.464Z,67.50
2018-05-18T05:33:36.543Z,67.50
2018-05-18T05:34:36.924Z,67.50
2018-05-18T05:35:37.898Z,67.50
2018-05-18T05:36:37.219Z,67.50
2018-05-18T05:37:37.370Z,67.50
2018-05-18T05:38:37.564Z,67.50
2018-05-18T05:39:37.665Z,67.50
2018-05-18T05:40:38.380Z,67.50
2018-05-18T05:41:38.094Z,73.13
2018-05-18T05:42:38.377Z,73.13
2018-05-18T05:43:38.579Z,78.75
2018-05-18T05:44:38.604Z,78.75
2018-05-18T05:45:38.790Z,78.75
2018-05-18T05:46:38.937Z,84.38
2018-05-18T05:47:39.130Z,84.38
2018-05-18T05:48:39.246Z,84.38
2018-05-18T05:49:39.626Z,84.38
2018-05-18T05:50:40.189Z,84.38
2018-05-18T05:51:40.503Z,84.38
2018-05-18T05:52:40.072Z,84.38
2018-05-18T05:53:40.198Z,84.38
2018-05-18T05:54:40.361Z,84.38
2018-05-18T05:55:40.496Z,90.00
2018-05-18T05:56:40.598Z,95.63
2018-05-18T05:57:40.747Z,95.63
2018-05-18T05:58:40.935Z,95.63
2018-05-18T05:59:41.276Z,95.63
2018-05-18T06:00:41.380Z,95.63
2018-05-18T06:02:43.382Z,95.63
2018-05-18T06:03:41.928Z,95.63
2018-05-18T06:04:42.197Z,90.00
2018-05-18T06:05:42.249Z,90.00
2018-05-18T06:06:42.440Z,90.00
2018-05-18T06:07:42.597Z,95.63
2018-05-18T06:08:42.685Z,101.25
2018-05-18T06:09:42.766Z,101.25
2018-05-18T06:10:42.987Z,101.25
2018-05-18T06:11:43.153Z,106.88
2018-05-18T06:12:43.270Z,106.88
2018-05-18T06:13:43.571Z,106.88
2018-05-18T06:14:43.650Z,106.88
2018-05-18T06:15:43.811Z,106.88
2018-05-18T06:16:43.916Z,112.50
2018-05-18T06:17:44.090Z,112.50
2018-05-18T06:18:44.378Z,112.50
2018-05-18T06:19:44.498Z,118.13
2018-05-18T06:20:44.568Z,118.13
2018-05-18T06:21:52.098Z,118.13
2018-05-18T06:22:45.039Z,118.13
2018-05-18T06:23:45.465Z,123.75
2018-05-18T06:24:45.235Z,123.75
2018-05-18T06:25:45.450Z,129.38
2018-05-18T06:40:59.472Z,129.38
2018-05-18T06:42:01.091Z,129.38
2018-05-18T06:42:59.243Z,129.38
2018-05-18T06:43:58.975Z,129.38
2018-05-18T06:44:59.274Z,135.00
2018-05-18T06:45:59.334Z,135.00
2018-05-18T06:46:59.512Z,140.63
2018-05-18T06:47:59.714Z,146.25
2018-05-18T06:48:59.858Z,151.88
2018-05-18T06:50:00.129Z,157.50
2018-05-18T06:51:00.187Z,163.13
2018-05-18T06:52:00.336Z,163.13
2018-05-18T06:53:00.487Z,157.50
2018-05-18T06:54:00.767Z,163.13
2018-05-18T06:55:00.823Z,157.50
2018-05-18T06:56:01.001Z,157.50
2018-05-18T06:57:01.289Z,163.13
2018-05-18T06:58:01.410Z,163.13
2018-05-18T06:59:01.561Z,163.13
2018-05-18T07:00:01.754Z,163.13
2018-05-18T07:01:01.879Z,163.13
2018-05-18T07:02:02.080Z,168.75
2018-05-18T07:03:02.267Z,168.75
2018-05-18T07:04:02.447Z,174.38
2018-05-18T07:05:02.650Z,168.75
2018-05-18T07:06:03.345Z,168.75
2018-05-18T07:07:02.931Z,163.13
2018-05-18T07:08:03.370Z,163.13
2018-05-18T07:09:03.352Z,163.13
2018-05-18T07:10:03.531Z,163.13
2018-05-18T07:11:03.642Z,163.13
2018-05-18T07:12:04.012Z,168.75
2018-05-18T07:13:03.986Z,168.75
2018-05-18T07:14:04.127Z,174.38
2018-05-18T07:15:04.272Z,174.38
2018-05-18T07:16:04.472Z,174.38
2018-05-18T07:17:04.960Z,174.38
2018-05-18T07:18:05.500Z,168.75
2018-05-18T07:19:05.511Z,163.13
2018-05-18T07:20:05.593Z,163.13
2018-05-18T07:21:05.841Z,163.13
2018-05-18T07:22:05.582Z,163.13
2018-05-18T07:25:50.310Z,185.63
2018-05-18T07:26:50.589Z,191.25
2018-05-18T07:27:50.513Z,191.25
2018-05-18T07:28:51.919Z,196.88
2018-05-18T07:29:51.378Z,196.88
2018-05-18T07:30:53.441Z,191.25
2018-05-18T07:32:49.847Z,196.88
2018-05-18T07:33:49.208Z,208.13
2018-05-18T07:34:49.258Z,219.38
2018-05-18T07:35:49.426Z,225.00
2018-05-18T07:36:49.617Z,225.00
2018-05-18T07:37:49.869Z,219.38
2018-05-18T07:38:50.007Z,213.75
2018-05-18T07:39:50.145Z,202.50
2018-05-18T07:40:50.308Z,196.88
2018-05-18T07:41:50.817Z,196.88
2018-05-18T07:42:50.786Z,196.88
2018-05-18T07:43:50.918Z,202.50
2018-05-18T07:44:51.153Z,196.88
2018-05-18T07:45:51.316Z,202.50
2018-05-18T07:46:51.393Z,196.88
2018-05-18T07:47:51.542Z,202.50
2018-05-18T07:48:51.828Z,202.50
2018-05-18T07:49:51.919Z,202.50
2018-05-18T07:50:52.145Z,196.88
2018-05-18T07:51:52.322Z,196.88
2018-05-18T07:52:52.423Z,202.50
2018-05-18T07:53:52.616Z,202.50
2018-05-18T07:54:52.829Z,202.50
2018-05-18T07:55:53.088Z,208.13
2018-05-18T07:56:53.088Z,213.75
2018-05-18T07:57:53.706Z,219.38
2018-05-18T07:58:53.534Z,219.38
2018-05-18T07:59:53.803Z,219.38
2018-05-18T08:00:53.895Z,225.00
2018-05-18T08:01:54.277Z,225.00
2018-05-18T08:02:54.566Z,225.00
2018-05-18T08:03:54.373Z,219.38
2018-05-18T08:04:54.570Z,213.75
2018-05-18T08:05:54.810Z,213.75
2018-05-18T08:06:54.891Z,219.38
2018-05-18T08:07:55.306Z,208.13
2018-05-18T08:08:55.247Z,208.13
2018-05-18T08:09:55.791Z,208.13
2018-05-18T08:10:55.647Z,213.75
2018-05-18T08:11:55.746Z,219.38
2018-05-18T08:12:55.892Z,230.63
2018-05-18T08:13:55.981Z,236.25
2018-05-18T08:14:56.203Z,241.88
2018-05-18T08:15:57.007Z,247.50
2018-05-18T08:16:56.574Z,258.75
2018-05-18T08:17:56.777Z,264.38
2018-05-18T08:18:56.920Z,275.63
2018-05-18T08:19:57.090Z,286.88
2018-05-18T08:20:57.323Z,303.75
2018-05-18T08:21:57.537Z,315.00
2018-05-18T08:22:57.887Z,326.25
2018-05-18T08:23:57.651Z,326.25
2018-05-18T08:24:57.978Z,326.25
2018-05-18T08:25:58.516Z,326.25
2018-05-18T08:26:58.406Z,320.63
2018-05-18T08:27:58.568Z,315.00
2018-05-18T08:28:58.627Z,309.38
2018-05-18T08:29:59.073Z,303.75
2018-05-18T08:30:59.249Z,298.13
2018-05-18T08:31:59.308Z,292.50
2018-05-18T08:32:59.351Z,298.13
2018-05-18T08:33:59.542Z,303.75
2018-05-18T08:34:59.900Z,303.75
2018-05-18T08:36:00.701Z,298.13
2018-05-18T08:37:00.030Z,298.13
2018-05-18T08:37:59.977Z,303.75
2018-05-18T08:39:01.011Z,315.00
2018-05-18T08:40:09.752Z,315.00
2018-05-18T08:41:13.821Z,315.00
2018-05-18T08:42:04.469Z,320.63
2018-05-18T08:45:32.563Z,331.88
2018-05-18T08:46:33.264Z,337.50
2018-05-18T08:47:32.761Z,343.13
2018-05-18T08:48:35.326Z,348.75
2018-05-18T08:49:34.016Z,360.00
2018-05-18T08:50:34.074Z,376.88
2018-05-18T08:51:33.687Z,399.38
2018-05-18T08:55:09.631Z,399.38
2018-05-18T08:56:09.583Z,388.13
2018-05-18T08:57:09.792Z,382.50
2018-05-18T08:58:13.769Z,371.25
2018-05-18T08:59:15.149Z,360.00
2018-05-18T09:01:14.288Z,354.38
2018-05-18T09:02:14.284Z,365.63
2018-05-18T09:03:15.282Z,371.25
2018-05-18T09:04:29.436Z,376.88
2018-05-18T09:05:14.936Z,382.50
2018-05-18T09:06:15.304Z,382.50
2018-05-18T09:07:14.505Z,393.75
2018-05-18T09:08:14.439Z,399.38
2018-05-18T09:09:21.300Z,410.63
2018-05-18T09:11:16.342Z,444.38
2018-05-18T09:14:22.661Z,495.00
2018-05-18T09:16:13.074Z,506.25
2018-05-18T09:17:14.830Z,500.63
2018-05-18T09:19:32.178Z,489.38
2018-05-18T09:20:17.579Z,489.38
2018-05-18T09:21:14.662Z,489.38
2018-05-18T09:22:13.721Z,483.75
2018-05-18T09:23:13.501Z,478.13
2018-05-18T09:24:14.071Z,489.38
2018-05-18T09:25:12.096Z,528.75
2018-05-18T09:28:29.791Z,646.88
2018-05-18T09:41:16.716Z,618.75
2018-05-18T09:46:24.963Z,624.38
2018-05-18T09:53:07.698Z,579.38
2018-05-18T09:54:08.025Z,562.50
2018-05-18T09:55:25.440Z,551.25
2018-05-18T09:56:06.849Z,540.00
2018-05-18T09:57:04.327Z,528.75
2018-05-18T09:59:04.888Z,517.50
2018-05-18T10:00:07.223Z,517.50
2018-05-18T10:01:06.341Z,517.50
2018-05-18T10:02:08.121Z,523.13
2018-05-18T10:03:05.701Z,528.75
2018-05-18T10:04:11.476Z,517.50
2018-05-18T10:05:11.267Z,517.50
2018-05-18T10:06:48.621Z,517.50
2018-05-18T10:07:07.690Z,523.13
2018-05-18T10:09:09.933Z,523.13
2018-05-18T10:10:08.211Z,506.25
2018-05-18T10:11:14.668Z,495.00
2018-05-18T10:13:06.903Z,461.25
2018-05-18T10:14:07.484Z,450.00
2018-05-18T10:15:07.403Z,455.63
2018-05-18T10:16:09.880Z,461.25
2018-05-18T10:17:11.624Z,455.63
2018-05-18T10:18:08.804Z,455.63
2018-05-18T10:19:07.366Z,466.88
2018-05-18T10:20:07.685Z,461.25
2018-05-18T10:21:05.847Z,466.88
2018-05-18T10:22:20.851Z,472.50
2018-05-18T10:23:09.710Z,478.13
2018-05-18T10:24:08.178Z,483.75
2018-05-18T10:25:08.593Z,483.75
2018-05-18T10:26:09.277Z,483.75
2018-05-18T10:27:09.130Z,489.38
2018-05-18T10:28:09.362Z,506.25
2018-05-18T10:29:13.104Z,523.13
2018-05-18T10:30:12.325Z,556.88
2018-05-18T10:32:10.931Z,641.25
2018-05-18T10:33:11.807Z,686.25
2018-05-18T10:34:12.003Z,736.88
2018-05-18T10:36:29.934Z,810.00
2018-05-18T10:37:14.111Z,826.88
2018-05-18T10:38:20.108Z,832.50
2018-05-18T10:39:11.843Z,843.75
2018-05-18T10:40:14.158Z,843.75
2018-05-18T10:41:12.402Z,832.50
2018-05-18T10:42:13.640Z,810.00
2018-05-18T10:43:13.221Z,787.50
2018-05-18T10:44:12.327Z,770.63
2018-05-18T10:45:13.068Z,748.13
2018-05-18T10:46:12.274Z,736.88
2018-05-18T10:47:15.114Z,720.00
2018-05-18T10:48:16.406Z,708.75
2018-05-18T10:49:13.463Z,703.13
2018-05-18T10:50:11.285Z,697.50
2018-05-18T10:51:10.965Z,691.88
2018-05-18T10:52:11.069Z,686.25
2018-05-18T10:53:11.081Z,686.25
2018-05-18T10:54:11.292Z,686.25
2018-05-18T10:55:11.441Z,686.25
2018-05-18T10:56:11.441Z,680.63
2018-05-18T10:57:11.546Z,658.13
2018-05-18T10:58:11.725Z,646.88
2018-05-18T10:59:11.762Z,635.63
2018-05-18T11:00:12.450Z,635.63
2018-05-18T11:01:12.181Z,635.63
2018-05-18T11:02:12.374Z,630.00
2018-05-18T11:03:13.001Z,630.00
2018-05-18T11:04:14.260Z,618.75
2018-05-18T11:05:12.904Z,601.88
2018-05-18T11:06:13.483Z,596.25
2018-05-18T11:07:13.487Z,590.63
2018-05-18T11:08:13.712Z,590.63
2018-05-18T11:09:14.245Z,590.63
2018-05-18T11:10:13.889Z,596.25
2018-05-18T11:11:14.159Z,596.25
2018-05-18T11:12:14.251Z,601.88
2018-05-18T11:13:14.497Z,607.50
2018-05-18T11:14:14.763Z,613.13
2018-05-18T11:15:15.469Z,613.13
2018-05-18T11:16:15.445Z,630.00
2018-05-18T11:17:15.388Z,635.63
2018-05-18T11:18:15.456Z,652.50
2018-05-18T11:19:15.403Z,663.75
2018-05-18T11:20:15.625Z,669.38
2018-05-18T11:21:15.525Z,680.63
2018-05-18T11:22:15.945Z,680.63
2018-05-18T11:23:15.943Z,691.88
2018-05-18T11:24:16.173Z,691.88
2018-05-18T11:25:16.313Z,691.88
2018-05-18T11:26:16.765Z,691.88
2018-05-18T11:27:17.229Z,680.63
2018-05-18T11:28:18.778Z,669.38
2018-05-18T11:29:17.124Z,658.13
2018-05-18T11:30:17.224Z,658.13
2018-05-18T11:31:17.386Z,658.13
2018-05-18T11:32:17.690Z,652.50
2018-05-18T11:33:17.815Z,652.50
2018-05-18T11:34:17.908Z,658.13
2018-05-18T11:35:18.848Z,663.75
2018-05-18T11:36:18.343Z,680.63
2018-05-18T11:37:18.552Z,703.13
2018-05-18T11:38:18.920Z,720.00
2018-05-18T11:39:19.071Z,720.00
2018-05-18T11:40:19.278Z,720.00
2018-05-18T11:41:19.668Z,720.00
2018-05-18T11:42:19.889Z,714.38
2018-05-18T11:43:19.685Z,708.75
2018-05-18T11:44:20.396Z,703.13
2018-05-18T11:45:20.101Z,708.75
2018-05-18T11:46:21.841Z,714.38
2018-05-18T11:47:20.257Z,725.63
2018-05-18T11:48:21.311Z,720.00
2018-05-18T11:49:20.374Z,720.00
2018-05-18T11:50:21.547Z,708.75
2018-05-18T11:51:20.916Z,703.13
2018-05-18T11:52:23.549Z,691.88
2018-05-18T11:53:21.247Z,680.63
2018-05-18T11:54:22.213Z,663.75
2018-05-18T11:55:21.356Z,646.88
2018-05-18T11:56:21.560Z,635.63
2018-05-18T11:57:21.784Z,613.13
2018-05-18T11:58:21.954Z,601.88
2018-05-18T11:59:22.164Z,601.88
2018-05-18T12:00:22.220Z,607.50
2018-05-18T12:01:22.788Z,607.50
2018-05-18T12:02:23.135Z,613.13
2018-05-18T12:03:22.826Z,613.13
2018-05-18T12:04:22.926Z,607.50
2018-05-18T12:05:23.125Z,601.88
2018-05-18T12:06:23.437Z,596.25
2018-05-18T12:07:23.637Z,596.25
2018-05-18T12:08:24.867Z,596.25
2018-05-18T12:09:23.979Z,601.88
2018-05-18T12:10:24.179Z,601.88
2018-05-18T12:11:24.321Z,601.88
2018-05-18T12:12:25.049Z,601.88
2018-05-18T12:13:24.662Z,601.88
2018-05-18T12:14:24.928Z,601.88
2018-05-18T12:15:25.712Z,601.88
2018-05-18T12:16:25.846Z,613.13
2018-05-18T12:17:25.436Z,618.75
2018-05-18T12:18:25.856Z,618.75
2018-05-18T12:19:25.712Z,613.13
2018-05-18T12:20:26.072Z,618.75
2018-05-18T12:21:26.181Z,607.50
2018-05-18T12:22:26.372Z,607.50
2018-05-18T12:23:26.764Z,607.50
2018-05-18T12:24:26.735Z,607.50
2018-05-18T12:25:26.994Z,613.13
2018-05-18T12:26:27.233Z,613.13
2018-05-18T12:27:27.224Z,601.88
2018-05-18T12:28:27.273Z,590.63
2018-05-18T12:29:28.275Z,573.75
2018-05-18T12:30:28.857Z,556.88
2018-05-18T12:31:27.875Z,551.25
2018-05-18T12:32:28.080Z,534.38
2018-05-18T12:33:28.353Z,528.75
2018-05-18T12:34:28.301Z,528.75
2018-05-18T12:35:28.286Z,534.38
2018-05-18T12:36:28.389Z,540.00
2018-05-18T12:37:28.586Z,545.63
2018-05-18T12:38:28.859Z,540.00
2018-05-18T12:39:28.912Z,534.38
2018-05-18T12:40:29.129Z,517.50
2018-05-18T12:41:29.694Z,500.63
2018-05-18T12:42:29.592Z,489.38
2018-05-18T12:43:29.895Z,489.38
2018-05-18T12:44:29.948Z,489.38
2018-05-18T12:45:31.194Z,506.25
2018-05-18T12:46:30.757Z,511.88
2018-05-18T12:47:30.309Z,523.13
2018-05-18T12:48:30.340Z,540.00
2018-05-18T12:49:30.617Z,562.50
2018-05-18T12:50:30.842Z,573.75
2018-05-18T12:51:30.848Z,585.00
2018-05-18T12:52:31.189Z,579.38
2018-05-18T12:53:31.780Z,590.63
2018-05-18T12:54:36.662Z,596.25
2018-05-18T12:56:39.413Z,601.88
2018-05-18T12:57:32.621Z,601.88
2018-05-18T12:58:34.616Z,596.25
2018-05-18T12:59:32.452Z,607.50
2018-05-18T13:00:32.918Z,618.75
2018-05-18T13:01:32.702Z,624.38
2018-05-18T13:02:33.662Z,624.38
2018-05-18T13:03:33.556Z,613.13
2018-05-18T13:06:10.210Z,601.88
2018-05-18T13:07:08.658Z,596.25
2018-05-18T13:08:09.876Z,590.63
2018-05-18T13:09:13.316Z,590.63
2018-05-18T13:10:10.674Z,585.00
2018-05-18T13:11:22.742Z,590.63
2018-05-18T13:12:14.231Z,590.63
2018-05-18T13:13:16.115Z,590.63
2018-05-18T13:14:12.323Z,596.25
2018-05-18T13:15:12.466Z,601.88
2018-05-18T13:16:10.824Z,613.13
2018-05-18T13:17:11.103Z,624.38
2018-05-18T13:18:15.145Z,624.38
2018-05-18T13:19:11.096Z,618.75
2018-05-18T13:20:11.642Z,618.75
2018-05-18T13:21:11.344Z,624.38
2018-05-18T13:22:09.593Z,618.75
2018-05-18T13:23:09.185Z,607.50
2018-05-18T13:24:09.160Z,601.88
2018-05-18T13:25:09.554Z,601.88
2018-05-18T13:26:09.648Z,607.50
2018-05-18T13:27:09.686Z,618.75
2018-05-18T13:28:09.746Z,641.25
2018-05-18T13:29:10.053Z,708.75
2018-05-18T13:30:10.509Z,703.13
2018-05-18T13:31:19.365Z,720.00
2018-05-18T13:32:21.825Z,703.13
2018-05-18T13:33:13.233Z,691.88
2018-05-18T13:34:23.104Z,675.00
2018-05-18T13:35:31.591Z,652.50
2018-05-18T13:37:14.508Z,601.88
2018-05-18T13:38:14.328Z,573.75
2018-05-18T13:40:14.365Z,517.50
2018-05-18T13:41:15.144Z,489.38
2018-05-18T13:43:15.147Z,450.00
2018-05-18T13:49:59.880Z,427.50
2018-05-18T13:50:59.168Z,427.50
2018-05-18T13:51:59.631Z,427.50
2018-05-18T13:52:59.930Z,421.88
2018-05-18T13:54:00.775Z,421.88
2018-05-18T13:54:57.756Z,421.88
2018-05-18T13:55:57.667Z,416.25
2018-05-18T13:56:57.808Z,410.63
2018-05-18T13:57:57.922Z,410.63
2018-05-18T13:58:58.108Z,405.00
2018-05-18T13:59:58.280Z,393.75
2018-05-18T14:00:58.413Z,388.13
2018-05-18T14:01:58.594Z,376.88
2018-05-18T14:02:58.749Z,365.63
2018-05-18T14:03:58.945Z,360.00
2018-05-18T14:04:59.064Z,348.75
2018-05-18T14:05:59.263Z,337.50
2018-05-18T14:06:59.383Z,331.88
2018-05-18T14:07:59.584Z,331.88
2018-05-18T14:08:59.735Z,337.50
2018-05-18T14:09:59.965Z,354.38
2018-05-18T14:11:00.228Z,376.88
2018-05-18T14:12:00.300Z,393.75
2018-05-18T14:13:00.399Z,405.00
2018-05-18T14:14:00.554Z,421.88
2018-05-18T14:15:00.739Z,427.50
2018-05-18T14:16:00.931Z,421.88
2018-05-18T14:17:01.087Z,416.25
2018-05-18T14:18:01.328Z,416.25
2018-05-18T14:19:01.427Z,410.63
2018-05-18T14:20:01.687Z,405.00
2018-05-18T14:21:01.882Z,410.63
2018-05-18T14:22:02.044Z,405.00
2018-05-18T14:23:02.110Z,410.63
2018-05-18T14:24:02.256Z,410.63
2018-05-18T14:25:02.448Z,410.63
2018-05-18T14:26:02.605Z,405.00
2018-05-18T14:27:02.878Z,410.63
2018-05-18T14:28:03.032Z,410.63
2018-05-18T14:29:03.184Z,405.00
2018-05-18T14:30:03.332Z,399.38
2018-05-18T14:31:03.592Z,388.13
2018-05-18T14:32:03.686Z,382.50
2018-05-18T14:33:03.959Z,371.25
2018-05-18T14:34:04.138Z,365.63
2018-05-18T14:35:04.448Z,354.38
2018-05-18T14:36:04.982Z,354.38
2018-05-18T14:37:06.370Z,360.00
2018-05-18T14:38:06.260Z,371.25
2018-05-18T14:39:04.852Z,388.13
2018-05-18T14:40:05.096Z,388.13
2018-05-18T14:41:05.215Z,405.00
2018-05-18T14:42:05.333Z,416.25
2018-05-18T14:43:05.604Z,427.50
2018-05-18T14:44:05.992Z,444.38
2018-05-18T14:45:05.882Z,455.63
2018-05-18T14:57:28.642Z,506.25
2018-05-18T14:58:29.280Z,517.50
2018-05-18T14:59:30.579Z,517.50
2018-05-18T15:03:36.785Z,466.88
2018-05-18T15:04:32.940Z,450.00
2018-05-18T15:05:36.025Z,433.13
2018-05-18T16:13:33.281Z,945.00
2018-05-18T16:14:15.859Z,781.88
2018-05-18T16:15:36.304Z,736.88
2018-05-18T16:54:15.941Z,483.75
2018-05-18T16:55:15.405Z,478.13
2018-05-18T16:56:15.064Z,472.50
2018-05-18T16:57:17.295Z,461.25
2018-05-18T17:00:42.258Z,421.88
2018-05-18T17:01:42.609Z,410.63
2018-05-18T17:03:19.069Z,399.38
2018-05-18T17:04:50.912Z,393.75
2018-05-18T17:05:46.124Z,399.38
2018-05-18T17:06:45.868Z,405.00
2018-05-18T17:07:43.840Z,405.00
2018-05-18T17:08:44.867Z,421.88
2018-05-18T17:09:49.071Z,421.88
2018-05-18T17:10:44.116Z,416.25
2018-05-18T17:11:42.773Z,405.00
2018-05-18T17:13:53.378Z,354.38
2018-05-18T17:15:19.460Z,354.38
2018-05-18T17:16:44.820Z,360.00
2018-05-18T17:18:46.036Z,388.13
2018-05-18T17:20:49.239Z,331.88
2018-05-18T17:21:49.419Z,326.25
2018-05-18T17:27:34.613Z,303.75
2018-05-18T17:28:20.477Z,298.13
2018-05-18T17:29:24.448Z,298.13
2018-05-18T17:30:22.511Z,292.50
2018-05-18T17:31:20.612Z,286.88
2018-05-18T17:32:19.962Z,286.88
2018-05-18T17:33:28.054Z,286.88
2018-05-18T17:34:20.978Z,281.25
2018-05-18T17:35:21.476Z,275.63
2018-05-18T17:37:22.743Z,270.00
2018-05-18T17:38:22.992Z,264.38
2018-05-18T17:39:22.954Z,253.13
2018-05-18T17:40:21.006Z,247.50
2018-05-18T17:41:25.891Z,241.88
2018-05-18T17:42:31.666Z,236.25
2018-05-18T17:43:32.670Z,236.25
2018-05-18T17:46:57.814Z,213.75
2018-05-18T17:47:57.332Z,208.13
2018-05-18T17:49:08.297Z,208.13
2018-05-18T17:49:55.982Z,208.13
2018-05-18T17:50:58.684Z,202.50
2018-05-18T17:51:58.381Z,196.88
2018-05-18T17:52:55.368Z,191.25
2018-05-18T17:53:56.378Z,185.63
2018-05-18T17:54:53.579Z,185.63
2018-05-18T17:55:54.677Z,180.00
2018-05-18T17:56:52.808Z,174.38
2018-05-18T17:57:52.954Z,168.75
2018-05-18T17:58:53.132Z,163.13
2018-05-18T17:59:53.262Z,157.50
2018-05-18T18:00:53.384Z,151.88
2018-05-18T18:01:53.632Z,151.88
2018-05-18T18:02:53.757Z,146.25
2018-05-18T18:03:53.890Z,140.63
2018-05-18T18:04:54.191Z,135.00
2018-05-18T18:05:54.306Z,135.00
2018-05-18T18:06:54.405Z,129.38
2018-05-18T18:07:54.624Z,123.75
2018-05-18T18:08:54.865Z,123.75
2018-05-18T18:09:54.969Z,118.13
2018-05-18T18:10:55.087Z,112.50
2018-05-18T18:11:55.290Z,112.50
2018-05-18T18:12:55.401Z,106.88
2018-05-18T18:13:55.680Z,101.25
2018-05-18T18:14:55.819Z,101.25
2018-05-18T18:15:56.135Z,95.63
2018-05-18T18:16:56.138Z,95.63
2018-05-18T18:17:56.314Z,90.00
2018-05-18T18:18:56.472Z,84.38
2018-05-18T18:19:56.630Z,84.38
2018-05-18T18:20:56.959Z,78.75
2018-05-18T18:21:57.064Z,78.75
2018-05-18T18:22:57.164Z,73.13
2018-05-18T18:23:57.372Z,73.13
2018-05-18T18:24:57.530Z,67.50
2018-05-18T18:25:57.720Z,67.50
2018-05-18T18:26:57.940Z,61.88
2018-05-18T18:27:58.095Z,61.88
2018-05-18T18:28:58.365Z,56.25
2018-05-18T18:29:58.453Z,56.25
2018-05-18T18:30:58.602Z,56.25
2018-05-18T18:31:58.865Z,50.63
2018-05-18T18:32:58.994Z,50.63
2018-05-18T18:33:59.213Z,50.63
2018-05-18T18:34:59.276Z,45.00
2018-05-18T18:35:59.499Z,45.00
2018-05-18T18:36:59.655Z,45.00
2018-05-18T18:37:59.858Z,39.38
2018-05-18T18:39:00.077Z,39.38
2018-05-18T18:40:00.269Z,39.38
2018-05-18T18:41:00.387Z,33.75
2018-05-18T18:42:00.472Z,33.75
2018-05-18T18:43:00.700Z,33.75
2018-05-18T18:44:00.827Z,33.75
2018-05-18T18:45:00.950Z,33.75
2018-05-18T18:46:01.110Z,28.13
2018-05-18T18:47:01.368Z,28.13
2018-05-18T18:48:01.513Z,28.13
2018-05-18T18:49:01.615Z,28.13
2018-05-18T18:50:01.892Z,28.13
2018-05-18T18:51:01.999Z,22.50
2018-05-18T18:52:02.106Z,22.50
2018-05-18T18:53:02.307Z,22.50
2018-05-18T18:54:02.449Z,22.50
2018-05-18T18:55:02.581Z,22.50
2018-05-18T18:56:02.756Z,16.88
2018-05-18T18:57:02.969Z,16.88
2018-05-18T18:58:03.169Z,16.88
2018-05-18T18:59:03.353Z,16.88
2018-05-18T19:00:03.569Z,16.88
2018-05-18T19:01:03.642Z,11.25
2018-05-18T19:02:03.874Z,11.25
2018-05-18T19:03:04.030Z,11.25
2018-05-18T19:04:04.197Z,11.25
2018-05-18T19:05:04.350Z,11.25
2018-05-18T19:06:04.464Z,11.25
2018-05-18T19:07:04.662Z,5.63
2018-05-18T19:08:04.837Z,5.63
2018-05-18T19:09:05.003Z,5.63
2018-05-18T19:10:05.268Z,5.63
2018-05-18T19:11:05.450Z,5.63
2018-05-18T19:12:05.618Z,5.63
2018-05-18T19:13:05.829Z,5.63
2018-05-18T19:14:05.894Z,5.63
2018-05-18T19:15:07.574Z,5.63
2018-05-18T19:16:06.365Z,0.00
2018-05-18T19:17:06.529Z,0.00
2018-05-18T19:18:07.738Z,0.00
2018-05-18T19:19:11.942Z,0.00
2018-05-18T19:20:07.028Z,0.00
2018-05-18T19:21:07.176Z,0.00
2018-05-18T19:22:07.450Z,0.00
2018-05-18T19:23:07.446Z,0.00
2018-05-18T19:24:07.605Z,0.00
2018-05-18T19:25:07.912Z,0.00
2018-05-18T19:26:07.967Z,0.00
2018-05-18T19:27:08.150Z,0.00
2018-05-18T19:28:08.262Z,0.00
2018-05-18T19:29:08.485Z,0.00
2018-05-18T19:30:08.632Z,0.00
2018-05-18T19:31:08.968Z,0.00
2018-05-18T19:32:09.016Z,0.00
2018-05-18T19:33:09.257Z,0.00
2018-05-18T19:34:09.342Z,0.00
2018-05-18T19:35:09.533Z,0.00
2018-05-18T19:36:09.718Z,0.00
2018-05-18T19:37:09.871Z,0.00
2018-05-18T19:38:10.073Z,0.00
2018-05-18T19:39:10.190Z,0.00
2018-05-18T19:40:10.742Z,0.00
2018-05-18T19:41:10.722Z,0.00
2018-05-18T19:42:10.762Z,0.00
2018-05-18T19:43:10.929Z,0.00
2018-05-18T19:44:11.006Z,0.00
2018-05-18T19:45:11.178Z,0.00
2018-05-18T19:46:11.337Z,0.00
2018-05-18T19:47:11.541Z,0.00
2018-05-18T19:48:11.883Z,0.00
2018-05-18T19:49:11.836Z,0.00
2018-05-18T19:50:11.954Z,0.00
2018-05-18T19:51:12.128Z,0.00
2018-05-18T19:52:12.326Z,0.00
2018-05-18T19:53:12.625Z,0.00
2018-05-18T19:54:14.822Z,0.00
2018-05-18T19:55:12.938Z,0.00
2018-05-18T19:56:13.074Z,0.00